createdAt,value
2019-02-28T00:00:55.499Z,8.01
2019-02-28T00:06:01.048Z,8.20
2019-02-28T00:11:06.740Z,8.34
2019-02-28T00:16:17.772Z,7.99
2019-02-28T00:21:23.366Z,8.33
2019-02-28T00:26:28.806Z,8.54
2019-02-28T00:31:34.919Z,8.45
2019-02-28T00:36:40.477Z,8.71
2019-02-28T00:41:45.972Z,8.94
2019-02-28T00:46:51.450Z,8.97
2019-02-28T00:51:57.298Z,8.87
2019-02-28T00:57:02.744Z,9.35
2019-02-28T01:02:08.756Z,9.39
2019-02-28T01:07:16.260Z,9.58
2019-02-28T01:12:21.440Z,9.65
2019-02-28T01:17:27.446Z,9.83
2019-02-28T01:22:33.251Z,9.98
2019-02-28T01:27:38.683Z,9.90
2019-02-28T01:32:49.965Z,9.98
2019-02-28T01:37:54.429Z,9.91
2019-02-28T01:43:05.325Z,10.00
2019-02-28T01:48:10.803Z,10.09
2019-02-28T01:53:19.503Z,10.15
2019-02-28T01:58:25.790Z,9.88
2019-02-28T02:03:31.446Z,10.21
2019-02-28T02:08:37.783Z,10.21
2019-02-28T02:13:44.036Z,10.33
2019-02-28T02:18:49.802Z,10.10
2019-02-28T02:23:55.902Z,10.28
2019-02-28T02:29:01.935Z,10.34
2019-02-28T02:34:07.494Z,10.47
2019-02-28T02:39:17.544Z,10.60
2019-02-28T02:44:21.594Z,10.73
2019-02-28T02:49:27.083Z,10.83
2019-02-28T02:55:06.797Z,10.83
2019-02-28T03:00:17.115Z,10.83
2019-02-28T03:05:23.355Z,10.58
2019-02-28T03:10:53.205Z,10.73
2019-02-28T03:16:01.730Z,10.77
2019-02-28T03:21:07.773Z,10.58
2019-02-28T03:26:13.647Z,10.67
2019-02-28T03:31:20.842Z,10.46
2019-02-28T03:36:26.409Z,10.61
2019-02-28T03:41:32.496Z,10.79
2019-02-28T03:46:38.493Z,10.65
2019-02-28T03:51:44.022Z,10.49
2019-02-28T03:56:52.904Z,10.52
2019-02-28T04:01:59.457Z,10.52
2019-02-28T04:07:06.323Z,10.40
2019-02-28T04:12:11.905Z,10.44
2019-02-28T04:17:17.292Z,10.60
2019-02-28T04:22:25.011Z,10.19
2019-02-28T04:27:34.941Z,10.27
2019-02-28T04:32:42.451Z,10.38
2019-02-28T04:37:48.141Z,10.24
2019-02-28T04:42:55.616Z,10.22
2019-02-28T04:48:01.136Z,10.10
2019-02-28T04:53:07.584Z,10.17
2019-02-28T04:58:13.214Z,10.03
2019-02-28T05:03:19.072Z,9.99
2019-02-28T05:08:24.889Z,9.98
2019-02-28T05:13:32.276Z,10.04
2019-02-28T05:18:37.973Z,9.77
2019-02-28T05:23:43.528Z,9.92
2019-02-28T05:28:49.379Z,10.02
2019-02-28T05:33:55.413Z,9.89
2019-02-28T05:39:00.888Z,9.76
2019-02-28T05:44:09.559Z,10.00
2019-02-28T05:49:15.180Z,9.82
2019-02-28T05:54:22.196Z,9.67
2019-02-28T05:59:27.913Z,9.79
2019-02-28T06:04:34.211Z,9.86
2019-02-28T06:09:40.994Z,9.81
2019-02-28T06:14:46.545Z,9.93
2019-02-28T06:19:52.242Z,9.88
2019-02-28T06:24:59.395Z,9.99
2019-02-28T06:35:49.584Z,9.95
2019-02-28T06:40:55.312Z,10.00
2019-02-28T06:46:00.865Z,10.29
2019-02-28T06:51:07.584Z,10.41
2019-02-28T06:56:13.226Z,10.44
2019-02-28T07:01:19.279Z,10.62
2019-02-28T07:06:26.397Z,10.94
2019-02-28T07:11:32.485Z,11.07
2019-02-28T07:16:38.115Z,11.16
2019-02-28T07:21:44.306Z,11.25
2019-02-28T07:26:52.211Z,11.51
2019-02-28T07:32:01.323Z,11.45
2019-02-28T07:37:04.690Z,11.38
2019-02-28T07:42:10.288Z,11.64
2019-02-28T07:47:17.660Z,11.90
2019-02-28T07:52:32.414Z,11.86
2019-02-28T07:57:34.262Z,12.08
2019-02-28T08:02:40.065Z,12.12
2019-02-28T08:07:50.301Z,12.18
2019-02-28T08:13:03.072Z,12.42
2019-02-28T08:18:18.885Z,12.56
2019-02-28T08:23:24.061Z,12.66
2019-02-28T08:28:35.881Z,12.90
2019-02-28T08:33:38.764Z,12.84
2019-02-28T08:38:47.008Z,13.07
2019-02-28T08:43:52.543Z,13.27
2019-02-28T08:48:58.216Z,13.13
2019-02-28T08:54:06.043Z,13.04
2019-02-28T08:59:12.151Z,13.32
2019-02-28T09:04:19.623Z,13.36
2019-02-28T09:09:25.119Z,13.44
2019-02-28T09:14:32.642Z,13.09
2019-02-28T09:19:39.027Z,13.78
2019-02-28T09:24:46.812Z,13.76
2019-02-28T09:29:54.898Z,13.89
2019-02-28T09:35:02.478Z,13.74
2019-02-28T09:40:14.011Z,13.76
2019-02-28T09:45:20.274Z,13.43
2019-02-28T09:50:26.035Z,13.71
2019-02-28T09:55:35.275Z,13.91
2019-02-28T10:00:38.955Z,14.18
2019-02-28T10:05:45.409Z,14.21
2019-02-28T10:10:52.487Z,14.20
2019-02-28T10:15:58.369Z,13.69
2019-02-28T10:21:04.392Z,13.74
2019-02-28T10:26:09.866Z,14.09
2019-02-28T10:31:15.437Z,13.95
2019-02-28T10:36:21.624Z,14.07
2019-02-28T10:41:27.953Z,14.24
2019-02-28T10:46:36.054Z,14.48
2019-02-28T10:51:44.675Z,14.39
2019-02-28T10:56:49.137Z,13.94
2019-02-28T11:01:55.594Z,13.92
2019-02-28T11:07:04.065Z,14.09
2019-02-28T11:12:09.768Z,14.02
2019-02-28T11:17:15.823Z,14.35
2019-02-28T11:22:21.397Z,14.09
2019-02-28T11:27:29.589Z,14.39
2019-02-28T11:32:35.146Z,14.37
2019-02-28T11:37:45.016Z,14.37
2019-02-28T11:42:49.387Z,14.14
2019-02-28T11:47:57.273Z,13.69
2019-02-28T11:53:23.709Z,13.69
2019-02-28T11:58:30.852Z,13.43
2019-02-28T12:03:36.647Z,13.90
2019-02-28T12:08:45.009Z,14.01
2019-02-28T12:13:51.619Z,13.94
2019-02-28T12:18:57.629Z,13.51
2019-02-28T12:24:06.125Z,13.54
2019-02-28T12:29:12.859Z,13.83
2019-02-28T12:34:19.468Z,14.14
2019-02-28T12:39:25.130Z,13.79
2019-02-28T12:44:32.723Z,14.28
2019-02-28T12:49:38.262Z,14.25
2019-02-28T12:54:44.950Z,13.93
2019-02-28T12:59:50.773Z,13.71
2019-02-28T13:04:56.323Z,13.82
2019-02-28T13:10:03.905Z,14.02
2019-02-28T13:15:13.165Z,13.56
2019-02-28T13:20:20.982Z,14.21
2019-02-28T13:25:27.268Z,14.30
2019-02-28T13:30:32.995Z,13.89
2019-02-28T13:35:44.681Z,14.32
2019-02-28T13:40:46.637Z,14.12
2019-02-28T13:45:55.881Z,13.91
2019-02-28T13:51:02.561Z,14.32
2019-02-28T13:56:07.342Z,13.93
2019-02-28T14:01:19.445Z,13.89
2019-02-28T14:06:23.893Z,14.03
2019-02-28T14:11:29.829Z,13.74
2019-02-28T14:16:35.975Z,13.97
2019-02-28T14:21:42.709Z,13.99
2019-02-28T14:26:50.385Z,13.98
2019-02-28T14:31:56.020Z,13.65
2019-02-28T14:37:04.783Z,14.07
2019-02-28T14:42:12.298Z,13.82
2019-02-28T14:47:18.072Z,13.42
2019-02-28T14:52:24.273Z,13.67
2019-02-28T14:57:30.144Z,13.67
2019-02-28T15:02:35.785Z,13.64
2019-02-28T15:07:42.145Z,13.49
2019-02-28T15:12:48.907Z,13.57
2019-02-28T15:17:54.617Z,13.25
2019-02-28T15:23:00.184Z,13.15
2019-02-28T15:28:10.688Z,13.19
2019-02-28T15:33:15.390Z,12.99
2019-02-28T15:38:21.031Z,13.18
2019-02-28T15:43:29.297Z,13.06
2019-02-28T15:48:35.337Z,13.12
2019-02-28T15:53:41.843Z,12.92
2019-02-28T15:58:47.643Z,13.21
2019-02-28T16:03:54.751Z,13.07
2019-02-28T16:09:00.534Z,12.86
2019-02-28T16:14:14.450Z,12.83
2019-02-28T16:19:18.870Z,12.67
2019-02-28T16:24:25.413Z,12.75
2019-02-28T16:29:31.113Z,12.47
2019-02-28T16:34:46.191Z,12.58
2019-02-28T16:39:51.935Z,12.37
2019-02-28T16:45:02.536Z,12.25
2019-02-28T16:50:18.774Z,12.14
2019-02-28T16:55:30.785Z,11.98
2019-02-28T17:00:36.020Z,12.05
2019-02-28T17:05:41.834Z,12.01
2019-02-28T17:10:47.892Z,11.77
2019-02-28T17:16:15.543Z,11.51
2019-02-28T17:21:21.220Z,11.30
2019-02-28T17:26:47.177Z,11.13
2019-02-28T17:31:54.377Z,10.59
2019-02-28T17:37:00.081Z,10.34
2019-02-28T17:42:08.795Z,10.31
2019-02-28T17:47:50.211Z,10.36
2019-02-28T17:53:10.270Z,10.30
2019-02-28T17:59:04.441Z,9.94
2019-02-28T18:05:01.019Z,10.34
2019-02-28T18:10:29.902Z,10.19
2019-02-28T18:16:21.614Z,10.20
2019-02-28T18:22:02.173Z,10.43
2019-02-28T18:27:50.730Z,10.26
2019-02-28T18:32:58.306Z,10.38
2019-02-28T18:38:09.625Z,9.92
2019-02-28T18:43:16.955Z,9.69
2019-02-28T18:48:26.066Z,9.47
2019-02-28T18:53:32.744Z,9.57
2019-02-28T18:58:41.106Z,10.05
2019-02-28T19:03:48.552Z,10.12
2019-02-28T19:08:55.072Z,10.15
2019-02-28T19:14:02.304Z,10.14
2019-02-28T19:19:09.401Z,9.99
2019-02-28T19:24:25.161Z,10.06
2019-02-28T19:29:31.564Z,10.07
2019-02-28T19:34:38.570Z,10.08
2019-02-28T19:39:44.294Z,9.96
2019-02-28T19:44:53.565Z,10.11
2019-02-28T19:49:59.840Z,10.18
2019-02-28T19:55:12.674Z,10.03
2019-02-28T20:00:22.088Z,10.20
2019-02-28T20:05:29.819Z,10.05
2019-02-28T20:10:39.483Z,10.07
2019-02-28T20:15:47.024Z,9.85
2019-02-28T20:20:53.995Z,9.97
2019-02-28T20:26:04.399Z,9.97
2019-02-28T20:31:10.604Z,9.97
2019-02-28T20:36:18.947Z,10.07
2019-02-28T20:41:29.895Z,9.94
2019-02-28T20:46:37.455Z,10.21
2019-02-28T20:51:54.765Z,10.11
2019-02-28T20:56:55.910Z,10.22
2019-02-28T21:02:04.997Z,10.31
2019-02-28T21:07:13.928Z,10.20
2019-02-28T21:12:23.146Z,10.22
2019-02-28T21:17:30.039Z,10.29
2019-02-28T21:22:36.729Z,10.37
2019-02-28T21:27:44.383Z,10.31
2019-02-28T21:32:50.612Z,9.97
2019-02-28T21:37:58.570Z,9.87
2019-02-28T21:43:07.097Z,9.47
2019-02-28T21:48:12.622Z,9.74
2019-02-28T21:53:18.254Z,9.56
2019-02-28T21:58:24.317Z,9.59
2019-02-28T22:03:29.952Z,9.65
2019-02-28T22:08:35.515Z,9.53
2019-02-28T22:13:41.137Z,9.55
2019-02-28T22:18:46.781Z,9.49
2019-02-28T22:23:52.371Z,9.46
2019-02-28T22:28:57.996Z,9.49
2019-02-28T22:34:13.915Z,9.40
2019-02-28T22:39:19.898Z,9.36
2019-02-28T22:44:25.481Z,9.37
2019-02-28T22:49:31.172Z,9.20
2019-02-28T22:54:37.918Z,9.22
2019-02-28T22:59:44.128Z,9.59
2019-02-28T23:04:50.003Z,9.53
2019-02-28T23:09:55.438Z,9.73
2019-02-28T23:15:00.954Z,9.38
2019-02-28T23:20:07.187Z,9.54
2019-02-28T23:25:12.869Z,9.59
2019-02-28T23:30:32.473Z,9.60
2019-02-28T23:35:41.104Z,9.58
2019-02-28T23:40:47.714Z,9.43
2019-02-28T23:45:54.428Z,9.77
2019-02-28T23:51:29.651Z,9.38
2019-02-28T23:56:35.733Z,9.53
